Time;durP1;ratioP1;P1;durP2;ratioP2;P2;SDS_P1;SDS_P2;PMS_P1;PMS_P2;Temp;Humidity;BMP_temperature;BMP_pressure;BME280_temperature;BME280_humidity;BME280_pressure;Samples;Min_cycle;Max_cycle;Signal;HPM_P1;HPM_P2
2021/07/12 00:02:11;;;;;;;37.67;33.60;;;;;;;;;;5072902;28;20474;-75
2021/07/12 00:04:39;;;;;;;34.27;30.67;;;;;;;;;;5073336;28;20828;-75
2021/07/12 00:07:06;;;;;;;35.33;31.57;;;;;;;;;;5073140;28;20484;-75
2021/07/12 00:09:33;;;;;;;36.43;32.50;;;;;;;;;;5072649;28;20457;-76
2021/07/12 00:12:00;;;;;;;35.40;31.60;;;;;;;;;;5080599;28;20565;-76
2021/07/12 00:14:27;;;;;;;36.60;32.67;;;;;;;;;;5093205;28;20448;-75
2021/07/12 00:16:56;;;;;;;35.77;30.80;;;;;;;;;;5093495;28;20473;-75
2021/07/12 00:19:23;;;;;;;36.70;32.43;;;;;;;;;;5093490;28;20846;-76
2021/07/12 00:21:50;;;;;;;34.43;30.47;;;;;;;;;;5093204;28;20449;-74
2021/07/12 00:24:19;;;;;;;39.23;34.90;;;;;;;;;;5092999;28;20447;-74
2021/07/12 00:26:47;;;;;;;40.77;35.73;;;;;;;;;;5091416;28;20533;-75
2021/07/12 00:29:14;;;;;;;42.03;33.70;;;;;;;;;;5082676;28;20430;-74
2021/07/12 00:31:42;;;;;;;39.67;34.47;;;;;;;;;;5081853;28;20434;-74
2021/07/12 00:34:10;;;;;;;43.10;36.00;;;;;;;;;;5096877;28;20437;-73
2021/07/12 00:36:37;;;;;;;38.70;34.50;;;;;;;;;;5083058;28;20474;-73
2021/07/12 00:39:05;;;;;;;41.53;34.50;;;;;;;;;;5076708;28;20446;-74
2021/07/12 00:41:32;;;;;;;40.30;33.60;;;;;;;;;;5078536;28;20553;-74
2021/07/12 00:43:59;;;;;;;36.10;31.60;;;;;;;;;;5085381;28;20517;-72
2021/07/12 00:46:26;;;;;;;41.10;32.13;;;;;;;;;;5085482;28;20442;-74
2021/07/12 00:48:54;;;;;;;36.13;30.13;;;;;;;;;;5076050;28;21020;-73
2021/07/12 00:51:22;;;;;;;40.60;33.40;;;;;;;;;;5076274;28;20454;-74
2021/07/12 00:53:50;;;;;;;39.00;33.37;;;;;;;;;;5076517;28;20532;-74
2021/07/12 00:56:17;;;;;;;36.13;31.87;;;;;;;;;;5075493;28;20517;-75
2021/07/12 00:58:45;;;;;;;38.00;32.60;;;;;;;;;;5075517;28;20570;-74
2021/07/12 01:01:12;;;;;;;35.53;31.03;;;;;;;;;;5076095;28;20444;-74
2021/07/12 01:03:39;;;;;;;35.87;32.23;;;;;;;;;;5076019;28;20515;-74
2021/07/12 01:06:07;;;;;;;41.97;33.83;;;;;;;;;;5076522;28;20445;-74
2021/07/12 01:08:36;;;;;;;36.87;32.00;;;;;;;;;;5086907;28;20450;-74
2021/07/12 01:11:06;;;;;;;42.40;32.73;;;;;;;;;;5081393;28;20434;-74
2021/07/12 01:13:36;;;;;;;41.27;34.23;;;;;;;;;;5096213;28;20442;-75
2021/07/12 01:16:08;;;;;;;42.53;33.30;;;;;;;;;;5096779;28;20441;-74
2021/07/12 01:18:40;;;;;;;35.30;30.70;;;;;;;;;;5095448;28;20463;-75
2021/07/12 01:21:24;;;;;;;36.90;32.93;;;;;;;;;;5095767;28;20431;-75
2021/07/12 01:24:10;;;;;;;40.20;32.73;;;;;;;;;;5095533;28;20441;-74
2021/07/12 01:26:52;;;;;;;36.40;31.10;;;;;;;;;;5093456;28;20464;-73
2021/07/12 01:29:29;;;;;;;35.07;30.37;;;;;;;;;;5084668;28;20974;-73
2021/07/12 01:32:14;;;;;;;36.67;31.10;;;;;;;;;;5087370;28;20510;-74
2021/07/12 01:34:46;;;;;;;36.57;32.80;;;;;;;;;;5076198;28;20465;-74
2021/07/12 01:37:20;;;;;;;34.90;31.10;;;;;;;;;;5075962;28;20467;-73
2021/07/12 01:39:50;;;;;;;44.87;32.57;;;;;;;;;;5075972;28;20436;-73
2021/07/12 01:42:20;;;;;;;33.23;29.63;;;;;;;;;;5079663;28;20455;-74
2021/07/12 01:44:54;;;;;;;37.73;31.67;;;;;;;;;;5081336;28;20437;-74
2021/07/12 01:47:26;;;;;;;34.73;31.30;;;;;;;;;;5082795;28;20459;-74
2021/07/12 01:49:57;;;;;;;35.80;30.83;;;;;;;;;;5075315;28;20517;-74
2021/07/12 01:52:29;;;;;;;37.60;30.43;;;;;;;;;;5074948;28;20469;-74
2021/07/12 01:55:00;;;;;;;34.20;30.67;;;;;;;;;;5075636;28;20897;-73
2021/07/12 01:57:29;;;;;;;39.17;32.13;;;;;;;;;;5075501;28;20500;-74
2021/07/12 01:59:59;;;;;;;36.90;32.90;;;;;;;;;;5074881;28;20450;-73
2021/07/12 02:02:29;;;;;;;38.43;32.37;;;;;;;;;;5075241;28;20797;-74
2021/07/12 02:04:59;;;;;;;38.97;33.67;;;;;;;;;;5075289;28;20459;-74
2021/07/12 02:07:27;;;;;;;37.97;33.20;;;;;;;;;;5075514;28;20439;-74
2021/07/12 02:09:55;;;;;;;35.97;31.30;;;;;;;;;;5074638;28;20531;-73
2021/07/12 02:12:23;;;;;;;38.27;34.17;;;;;;;;;;5078813;28;20452;-74
2021/07/12 02:14:51;;;;;;;35.77;31.70;;;;;;;;;;5085971;28;20516;-74
2021/07/12 02:17:19;;;;;;;35.07;30.63;;;;;;;;;;5081471;28;21025;-74
2021/07/12 02:19:47;;;;;;;35.30;31.47;;;;;;;;;;5074490;28;20454;-74
2021/07/12 02:22:16;;;;;;;35.23;30.40;;;;;;;;;;5075167;28;20436;-74
2021/07/12 02:24:45;;;;;;;35.30;31.47;;;;;;;;;;5075397;28;20451;-74
2021/07/12 02:27:13;;;;;;;33.67;29.80;;;;;;;;;;5082061;28;20457;-74
2021/07/12 02:29:40;;;;;;;34.67;30.70;;;;;;;;;;5094535;28;20523;-74
2021/07/12 02:32:07;;;;;;;33.50;29.90;;;;;;;;;;5094701;28;20526;-74
2021/07/12 02:34:35;;;;;;;35.33;31.57;;;;;;;;;;5094389;28;20454;-74
2021/07/12 02:37:03;;;;;;;37.90;33.80;;;;;;;;;;5094492;28;20444;-74
2021/07/12 02:39:32;;;;;;;38.50;33.90;;;;;;;;;;5094571;28;20440;-74
2021/07/12 02:42:01;;;;;;;36.53;32.47;;;;;;;;;;5090765;28;20465;-74
2021/07/12 02:44:29;;;;;;;36.73;32.93;;;;;;;;;;5074291;28;20448;-74
2021/07/12 02:46:57;;;;;;;41.00;32.60;;;;;;;;;;5074021;28;20465;-74
2021/07/12 02:49:24;;;;;;;38.33;34.23;;;;;;;;;;5073764;28;20441;-74
2021/07/12 02:51:54;;;;;;;37.30;32.57;;;;;;;;;;5074358;28;20446;-73
2021/07/12 02:54:24;;;;;;;38.93;34.77;;;;;;;;;;5073458;28;20491;-73
2021/07/12 02:56:52;;;;;;;35.20;31.00;;;;;;;;;;5074322;28;20442;-73
2021/07/12 02:59:19;;;;;;;39.63;33.97;;;;;;;;;;5073338;28;20504;-74
2021/07/12 03:01:47;;;;;;;41.70;33.30;;;;;;;;;;5073865;28;20483;-73
2021/07/12 03:04:14;;;;;;;40.47;33.73;;;;;;;;;;5074416;28;20447;-73
2021/07/12 03:06:43;;;;;;;39.23;34.23;;;;;;;;;;5073485;28;20969;-73
2021/07/12 03:09:13;;;;;;;37.20;31.97;;;;;;;;;;5074157;28;20448;-73
2021/07/12 03:11:43;;;;;;;39.70;33.93;;;;;;;;;;5073896;28;20466;-74
2021/07/12 03:14:14;;;;;;;40.17;33.47;;;;;;;;;;5073535;28;20929;-73
2021/07/12 03:16:41;;;;;;;38.90;33.40;;;;;;;;;;5073990;28;20441;-73
2021/07/12 03:19:12;;;;;;;47.03;35.70;;;;;;;;;;5073607;28;20563;-73
2021/07/12 03:21:41;;;;;;;40.43;33.10;;;;;;;;;;5073803;28;20516;-73
2021/07/12 03:24:09;;;;;;;38.67;33.17;;;;;;;;;;5073250;28;20451;-74
2021/07/12 03:26:41;;;;;;;39.60;33.93;;;;;;;;;;5073400;28;20836;-74
2021/07/12 03:29:08;;;;;;;40.67;32.80;;;;;;;;;;5073717;28;20436;-74
2021/07/12 03:31:37;;;;;;;36.97;30.47;;;;;;;;;;5080855;28;20451;-75
2021/07/12 03:34:05;;;;;;;38.57;32.07;;;;;;;;;;5076183;28;20437;-75
2021/07/12 03:36:33;;;;;;;39.27;33.00;;;;;;;;;;5090996;28;20450;-75
2021/07/12 03:39:00;;;;;;;43.77;35.57;;;;;;;;;;5081912;28;20466;-75
2021/07/12 03:41:27;;;;;;;38.77;34.00;;;;;;;;;;5082380;28;20446;-74
2021/07/12 03:43:55;;;;;;;35.63;32.03;;;;;;;;;;5093346;28;20435;-75
2021/07/12 03:46:22;;;;;;;38.00;33.33;;;;;;;;;;5079299;28;20997;-75
2021/07/12 03:48:50;;;;;;;43.90;34.07;;;;;;;;;;5082928;28;20516;-75
2021/07/12 03:51:20;;;;;;;43.17;33.70;;;;;;;;;;5081868;28;20430;-74
2021/07/12 03:53:48;;;;;;;37.13;33.13;;;;;;;;;;5092854;28;20978;-75
2021/07/12 03:56:15;;;;;;;37.63;33.30;;;;;;;;;;5093715;28;20438;-74
2021/07/12 03:58:42;;;;;;;38.73;30.47;;;;;;;;;;5093088;28;20478;-75
2021/07/12 04:01:10;;;;;;;37.87;33.17;;;;;;;;;;5093041;28;20445;-74
2021/07/12 04:03:37;;;;;;;36.80;32.00;;;;;;;;;;5073375;28;20450;-74
2021/07/12 04:06:07;;;;;;;37.57;31.57;;;;;;;;;;5073702;28;20538;-74
2021/07/12 04:08:34;;;;;;;38.80;31.43;;;;;;;;;;5085113;28;20800;-74
2021/07/12 04:11:01;;;;;;;38.60;33.77;;;;;;;;;;5079995;28;20444;-74
2021/07/12 04:13:28;;;;;;;34.57;30.77;;;;;;;;;;5096948;28;21017;-74
2021/07/12 04:15:56;;;;;;;31.47;28.13;;;;;;;;;;5092964;28;20437;-74
2021/07/12 04:18:23;;;;;;;33.77;29.83;;;;;;;;;;5096209;28;20467;-72
2021/07/12 04:20:50;;;;;;;35.70;31.07;;;;;;;;;;5097050;28;20444;-73
2021/07/12 04:23:19;;;;;;;34.37;29.13;;;;;;;;;;5097236;28;20459;-74
2021/07/12 04:25:46;;;;;;;36.20;30.17;;;;;;;;;;5096992;28;20445;-74
2021/07/12 04:28:13;;;;;;;35.27;29.53;;;;;;;;;;5089004;28;20827;-75
2021/07/12 04:30:40;;;;;;;33.20;29.63;;;;;;;;;;5087455;28;20460;-74
2021/07/12 04:33:08;;;;;;;35.67;29.67;;;;;;;;;;5091706;28;20456;-74
2021/07/12 04:35:35;;;;;;;34.50;28.43;;;;;;;;;;5076814;28;20444;-74
2021/07/12 04:38:02;;;;;;;35.53;29.67;;;;;;;;;;5075952;28;20572;-74
2021/07/12 04:40:31;;;;;;;36.80;31.23;;;;;;;;;;5076870;28;20551;-74
2021/07/12 04:42:58;;;;;;;32.03;28.17;;;;;;;;;;5076221;28;20452;-74
2021/07/12 04:45:27;;;;;;;31.97;28.73;;;;;;;;;;5076612;28;20435;-73
2021/07/12 04:47:54;;;;;;;32.97;29.27;;;;;;;;;;5076239;28;20445;-74
2021/07/12 04:50:22;;;;;;;32.07;28.60;;;;;;;;;;5085475;28;20460;-74
2021/07/12 04:52:50;;;;;;;31.77;28.60;;;;;;;;;;5078790;28;20446;-74
2021/07/12 04:55:17;;;;;;;35.87;29.20;;;;;;;;;;5083812;28;20481;-74
2021/07/12 04:57:46;;;;;;;31.10;27.90;;;;;;;;;;5076015;28;20442;-74
2021/07/12 05:00:14;;;;;;;39.00;30.33;;;;;;;;;;5078469;28;20943;-74
2021/07/12 05:02:41;;;;;;;37.70;29.50;;;;;;;;;;5083766;28;20431;-73
2021/07/12 05:05:10;;;;;;;36.40;30.60;;;;;;;;;;5091120;28;20457;-74
2021/07/12 05:07:39;;;;;;;32.47;28.90;;;;;;;;;;5095887;28;20432;-74
2021/07/12 05:10:07;;;;;;;33.20;29.60;;;;;;;;;;5075615;28;20446;-74
2021/07/12 05:12:34;;;;;;;32.30;28.90;;;;;;;;;;5082488;28;20468;-73
2021/07/12 05:15:02;;;;;;;35.97;29.17;;;;;;;;;;5096694;28;20459;-73
2021/07/12 05:17:30;;;;;;;30.40;26.87;;;;;;;;;;5095373;28;20934;-74
2021/07/12 05:19:57;;;;;;;30.60;26.90;;;;;;;;;;5094119;28;20481;-73
2021/07/12 05:22:25;;;;;;;31.27;27.90;;;;;;;;;;5075889;28;20442;-73
2021/07/12 05:24:53;;;;;;;33.37;29.50;;;;;;;;;;5075632;28;20955;-73
2021/07/12 05:27:21;;;;;;;35.53;29.20;;;;;;;;;;5079597;28;20458;-73
2021/07/12 05:29:48;;;;;;;34.90;31.30;;;;;;;;;;5090681;28;20828;-73
2021/07/12 05:32:17;;;;;;;33.93;30.43;;;;;;;;;;5079183;28;20957;-77
2021/07/12 05:34:44;;;;;;;35.60;31.70;;;;;;;;;;5075642;28;20453;-74
2021/07/12 05:37:11;;;;;;;39.40;31.63;;;;;;;;;;5076351;28;20438;-70
2021/07/12 05:39:38;;;;;;;40.73;34.03;;;;;;;;;;5086028;28;20575;-73
2021/07/12 05:42:06;;;;;;;37.60;32.67;;;;;;;;;;5080002;28;20473;-73
2021/07/12 05:44:33;;;;;;;37.37;32.33;;;;;;;;;;5088989;28;20454;-73
2021/07/12 05:47:00;;;;;;;37.87;31.90;;;;;;;;;;5077778;28;20634;-74
2021/07/12 05:49:29;;;;;;;36.37;31.87;;;;;;;;;;5095646;28;20462;-72
2021/07/12 05:51:56;;;;;;;35.40;30.63;;;;;;;;;;5095600;28;20439;-72
2021/07/12 05:54:23;;;;;;;35.00;31.20;;;;;;;;;;5095589;28;20471;-72
2021/07/12 05:56:50;;;;;;;36.07;32.13;;;;;;;;;;5090919;28;20465;-73
2021/07/12 05:59:17;;;;;;;35.93;32.10;;;;;;;;;;5083955;28;20558;-72
2021/07/12 06:01:45;;;;;;;33.53;29.70;;;;;;;;;;5087090;28;20438;-73
2021/07/12 06:04:12;;;;;;;35.20;31.30;;;;;;;;;;5095132;28;20546;-72
2021/07/12 06:06:40;;;;;;;43.33;31.57;;;;;;;;;;5095490;28;20451;-72
2021/07/12 06:09:07;;;;;;;39.07;32.50;;;;;;;;;;5095366;28;20441;-72
2021/07/12 06:11:35;;;;;;;35.80;29.70;;;;;;;;;;5091426;28;20551;-73
2021/07/12 06:14:02;;;;;;;30.17;26.63;;;;;;;;;;5085816;28;20442;-72
2021/07/12 06:16:29;;;;;;;35.97;32.27;;;;;;;;;;5084022;28;20446;-72
2021/07/12 06:18:56;;;;;;;35.17;31.23;;;;;;;;;;5086048;28;20549;-73
2021/07/12 06:21:24;;;;;;;37.30;32.23;;;;;;;;;;5080364;28;20466;-72
2021/07/12 06:23:52;;;;;;;37.67;32.53;;;;;;;;;;5088307;28;20464;-72
2021/07/12 06:26:20;;;;;;;39.03;32.30;;;;;;;;;;5077036;28;20449;-72
2021/07/12 06:28:47;;;;;;;36.47;32.77;;;;;;;;;;5087549;28;20463;-73
2021/07/12 06:31:14;;;;;;;36.70;32.90;;;;;;;;;;5073995;28;20454;-72
2021/07/12 06:33:41;;;;;;;38.67;32.00;;;;;;;;;;5074103;28;20944;-72
2021/07/12 06:36:09;;;;;;;36.17;32.30;;;;;;;;;;5074920;28;20446;-72
2021/07/12 06:38:36;;;;;;;35.83;31.20;;;;;;;;;;5074992;28;20511;-72
2021/07/12 06:41:05;;;;;;;36.53;32.63;;;;;;;;;;5074053;28;20447;-72
2021/07/12 06:43:32;;;;;;;37.83;32.80;;;;;;;;;;5074669;28;20444;-72
2021/07/12 06:46:00;;;;;;;43.60;31.17;;;;;;;;;;5074066;28;20537;-72
2021/07/12 06:48:27;;;;;;;39.30;30.93;;;;;;;;;;5073775;28;20464;-73
2021/07/12 06:50:54;;;;;;;39.47;30.93;;;;;;;;;;5073958;28;20443;-73
2021/07/12 06:53:21;;;;;;;35.27;30.57;;;;;;;;;;5073666;28;20432;-71
2021/07/12 06:55:49;;;;;;;33.53;29.90;;;;;;;;;;5073853;28;20479;-72
2021/07/12 06:58:17;;;;;;;37.90;30.30;;;;;;;;;;5073517;28;20484;-72
2021/07/12 07:00:44;;;;;;;31.87;28.10;;;;;;;;;;5073947;28;20486;-73
2021/07/12 07:03:12;;;;;;;34.93;28.27;;;;;;;;;;5073999;28;20540;-72
2021/07/12 07:05:39;;;;;;;35.23;28.57;;;;;;;;;;5073531;28;20440;-72
2021/07/12 07:08:06;;;;;;;32.60;28.03;;;;;;;;;;5074199;28;20527;-72
2021/07/12 07:10:33;;;;;;;37.23;24.77;;;;;;;;;;5073564;28;20483;-71
2021/07/12 07:13:01;;;;;;;33.13;26.97;;;;;;;;;;5082317;28;20956;-72
2021/07/12 07:15:29;;;;;;;35.30;29.63;;;;;;;;;;5076073;28;20448;-72
2021/07/12 07:17:57;;;;;;;34.83;29.60;;;;;;;;;;5086858;28;20457;-71
2021/07/12 07:20:24;;;;;;;32.93;29.43;;;;;;;;;;5081925;28;20537;-71
2021/07/12 07:22:51;;;;;;;33.47;29.93;;;;;;;;;;5087109;28;20981;-71
2021/07/12 07:25:19;;;;;;;31.33;27.97;;;;;;;;;;5084778;28;20511;-71
2021/07/12 07:27:46;;;;;;;31.60;28.30;;;;;;;;;;5080236;28;20527;-71
2021/07/12 07:30:14;;;;;;;34.10;28.17;;;;;;;;;;5074880;28;20470;-72
2021/07/12 07:32:43;;;;;;;29.93;26.40;;;;;;;;;;5073610;28;20462;-72
2021/07/12 07:35:10;;;;;;;31.90;28.50;;;;;;;;;;5073419;28;20452;-72
2021/07/12 07:37:37;;;;;;;29.47;24.77;;;;;;;;;;5074071;28;20443;-71
2021/07/12 07:40:06;;;;;;;30.53;27.23;;;;;;;;;;5078447;28;20467;-72
2021/07/12 07:42:33;;;;;;;30.93;27.77;;;;;;;;;;5085569;28;20442;-72
2021/07/12 07:45:01;;;;;;;30.77;27.43;;;;;;;;;;5084182;28;20448;-72
2021/07/12 07:47:28;;;;;;;31.57;28.17;;;;;;;;;;5093668;28;20441;-72
2021/07/12 07:49:57;;;;;;;31.37;28.00;;;;;;;;;;5093289;28;20448;-72
2021/07/12 07:52:24;;;;;;;30.90;26.63;;;;;;;;;;5093583;28;20523;-71
2021/07/12 07:54:51;;;;;;;32.40;27.67;;;;;;;;;;5093671;28;20477;-71
2021/07/12 07:57:19;;;;;;;30.63;27.30;;;;;;;;;;5093445;28;20451;-72
2021/07/12 07:59:46;;;;;;;32.63;28.57;;;;;;;;;;5093616;28;20506;-71
2021/07/12 08:02:13;;;;;;;30.80;27.57;;;;;;;;;;5093160;28;20451;-72
2021/07/12 08:04:40;;;;;;;30.33;25.93;;;;;;;;;;5093216;28;20449;-71
2021/07/12 08:07:09;;;;;;;30.03;26.67;;;;;;;;;;5093443;28;20533;-71
2021/07/12 08:09:37;;;;;;;30.37;27.07;;;;;;;;;;5093063;28;20861;-71
2021/07/12 08:12:04;;;;;;;29.57;26.53;;;;;;;;;;5088238;28;20452;-71
2021/07/12 08:14:32;;;;;;;30.93;27.50;;;;;;;;;;5073120;28;20452;-71
2021/07/12 08:16:59;;;;;;;31.67;26.40;;;;;;;;;;5072778;28;20477;-71
2021/07/12 08:19:26;;;;;;;29.63;26.30;;;;;;;;;;5072723;28;20501;-71
2021/07/12 08:21:54;;;;;;;31.40;26.17;;;;;;;;;;5073073;28;20438;-71
2021/07/12 08:24:22;;;;;;;33.40;27.40;;;;;;;;;;5073508;28;20492;-71
2021/07/12 08:26:49;;;;;;;29.33;26.33;;;;;;;;;;5072798;28;20948;-71
2021/07/12 08:29:18;;;;;;;25.93;22.97;;;;;;;;;;5072697;28;20450;-71
2021/07/12 08:31:46;;;;;;;26.90;24.10;;;;;;;;;;5072743;28;20815;-71
2021/07/12 08:34:13;;;;;;;29.10;23.40;;;;;;;;;;5072707;28;20444;-71
2021/07/12 08:36:40;;;;;;;26.80;24.10;;;;;;;;;;5072736;28;20446;-71
2021/07/12 08:39:07;;;;;;;28.63;25.77;;;;;;;;;;5093231;28;20447;-71
2021/07/12 08:41:36;;;;;;;29.70;26.40;;;;;;;;;;5093112;28;20438;-71
2021/07/12 08:44:03;;;;;;;26.60;23.90;;;;;;;;;;5092997;28;20455;-71
2021/07/12 08:46:31;;;;;;;25.60;21.53;;;;;;;;;;5092971;28;20445;-71
2021/07/12 08:48:58;;;;;;;24.60;22.10;;;;;;;;;;5082524;28;20461;-72
2021/07/12 08:51:25;;;;;;;20.00;18.17;;;;;;;;;;5090133;28;20442;-71
2021/07/12 08:53:52;;;;;;;22.40;20.20;;;;;;;;;;5088181;28;20480;-71
2021/07/12 08:56:19;;;;;;;23.07;20.70;;;;;;;;;;5096358;28;20450;-71
2021/07/12 08:58:48;;;;;;;23.03;20.63;;;;;;;;;;5086416;28;20488;-71
2021/07/12 09:01:16;;;;;;;22.30;19.90;;;;;;;;;;5076056;28;21016;-71
2021/07/12 09:03:44;;;;;;;19.37;17.47;;;;;;;;;;5076121;28;20457;-71
2021/07/12 09:06:12;;;;;;;19.00;17.17;;;;;;;;;;5075882;28;20891;-71
2021/07/12 09:08:42;;;;;;;19.10;17.33;;;;;;;;;;5076200;28;20806;-72
2021/07/12 09:11:10;;;;;;;21.37;19.30;;;;;;;;;;5079337;28;20452;-71
2021/07/12 09:13:58;;;;;;;22.60;20.20;;;;;;;;;;5087314;28;20523;-71
2021/07/12 09:16:27;;;;;;;21.23;18.90;;;;;;;;;;5077411;28;20458;-71
2021/07/12 09:19:03;;;;;;;19.17;17.27;;;;;;;;;;5076660;28;20448;-71
2021/07/12 09:21:33;;;;;;;20.50;18.57;;;;;;;;;;5077502;28;20477;-72
2021/07/12 09:24:12;;;;;;;21.30;18.83;;;;;;;;;;5084823;28;20439;-71
2021/07/12 09:26:42;;;;;;;19.87;17.97;;;;;;;;;;5087059;28;20869;-71
2021/07/12 09:29:14;;;;;;;18.70;17.10;;;;;;;;;;5096332;28;20801;-71
2021/07/12 09:31:43;;;;;;;17.33;15.13;;;;;;;;;;5095508;28;20424;-71
2021/07/12 09:34:10;;;;;;;16.10;14.60;;;;;;;;;;5075396;28;20937;-71
2021/07/12 09:36:37;;;;;;;18.00;16.10;;;;;;;;;;5075704;28;20463;-71
2021/07/12 09:39:21;;;;;;;18.57;16.97;;;;;;;;;;5084098;28;20821;-71
2021/07/12 09:41:48;;;;;;;16.67;15.20;;;;;;;;;;5078763;28;20519;-71
2021/07/12 09:44:16;;;;;;;16.53;14.90;;;;;;;;;;5089088;28;20832;-71
2021/07/12 09:46:44;;;;;;;19.93;16.33;;;;;;;;;;5080128;28;20463;-71
2021/07/12 09:49:13;;;;;;;18.20;16.50;;;;;;;;;;5087524;28;20860;-71
2021/07/12 09:51:40;;;;;;;18.93;17.23;;;;;;;;;;5084218;28;20440;-71
2021/07/12 09:54:20;;;;;;;22.20;20.00;;;;;;;;;;5088762;28;20456;-72
2021/07/12 09:56:48;;;;;;;20.27;18.20;;;;;;;;;;5095591;28;20465;-72
2021/07/12 09:59:15;;;;;;;18.70;17.10;;;;;;;;;;5095217;28;20475;-72
2021/07/12 10:01:51;;;;;;;18.80;17.00;;;;;;;;;;5077148;28;20591;-72
2021/07/12 10:04:18;;;;;;;19.30;17.57;;;;;;;;;;5075033;28;20436;-71
2021/07/12 10:06:47;;;;;;;18.93;17.23;;;;;;;;;;5074900;28;20470;-72
2021/07/12 10:09:14;;;;;;;19.93;18.10;;;;;;;;;;5075094;28;20791;-71
2021/07/12 10:11:44;;;;;;;21.90;19.03;;;;;;;;;;5074546;28;20447;-71
2021/07/12 10:14:12;;;;;;;19.30;17.50;;;;;;;;;;5075000;28;20444;-71
2021/07/12 10:16:39;;;;;;;18.30;16.60;;;;;;;;;;5074746;28;20525;-72
2021/07/12 10:19:08;;;;;;;19.60;16.23;;;;;;;;;;5084083;28;20818;-72
2021/07/12 10:21:36;;;;;;;17.87;16.40;;;;;;;;;;5076985;28;20555;-72
2021/07/12 10:24:04;;;;;;;18.73;17.03;;;;;;;;;;5087923;28;20965;-72
2021/07/12 10:26:50;;;;;;;19.13;17.13;;;;;;;;;;5079216;28;20434;-71
2021/07/12 10:29:19;;;;;;;20.00;18.10;;;;;;;;;;5074796;28;20522;-72
2021/07/12 10:31:56;;;;;;;19.73;17.70;;;;;;;;;;5078286;28;20464;-72
2021/07/12 10:34:29;;;;;;;19.10;17.03;;;;;;;;;;5086286;28;20443;-72
2021/07/12 10:36:59;;;;;;;20.83;17.07;;;;;;;;;;5081466;28;20992;-72
2021/07/12 10:39:41;;;;;;;20.23;18.33;;;;;;;;;;5083019;28;20438;-72
2021/07/12 10:42:08;;;;;;;18.00;16.30;;;;;;;;;;5082940;28;20484;-72
2021/07/12 10:44:51;;;;;;;18.13;16.43;;;;;;;;;;5074452;28;21013;-72
2021/07/12 10:47:37;;;;;;;16.23;14.83;;;;;;;;;;5077522;28;20458;-72
2021/07/12 10:50:27;;;;;;;16.80;15.27;;;;;;;;;;5083069;28;20437;-72
2021/07/12 10:52:54;;;;;;;16.87;15.30;;;;;;;;;;5090118;28;20443;-72
2021/07/12 10:55:30;;;;;;;16.77;15.07;;;;;;;;;;5094652;28;20942;-72
2021/07/12 10:58:15;;;;;;;18.03;16.23;;;;;;;;;;5094850;28;20864;-72
2021/07/12 11:00:43;;;;;;;18.27;16.47;;;;;;;;;;5073265;28;20498;-71
2021/07/12 11:03:26;;;;;;;16.37;14.90;;;;;;;;;;5085022;28;20479;-72
2021/07/12 11:05:54;;;;;;;16.00;13.97;;;;;;;;;;5081231;28;20470;-72
2021/07/12 11:08:40;;;;;;;16.63;14.07;;;;;;;;;;5085275;28;20543;-72
2021/07/12 11:11:07;;;;;;;17.17;15.57;;;;;;;;;;5081094;28;20807;-72
2021/07/12 11:13:49;;;;;;;16.90;15.40;;;;;;;;;;5093851;28;20487;-72
2021/07/12 11:16:17;;;;;;;13.57;12.20;;;;;;;;;;5093757;28;20427;-72
2021/07/12 11:18:45;;;;;;;15.00;13.50;;;;;;;;;;5081522;28;20454;-72
2021/07/12 11:21:14;;;;;;;14.50;13.20;;;;;;;;;;5091485;28;20463;-72
2021/07/12 11:23:49;;;;;;;14.53;13.07;;;;;;;;;;5073579;28;20452;-71
2021/07/12 11:26:35;;;;;;;14.53;13.10;;;;;;;;;;5073585;28;20451;-71
2021/07/12 11:29:03;;;;;;;14.37;13.17;;;;;;;;;;5078315;28;20469;-71
2021/07/12 11:31:46;;;;;;;14.60;13.30;;;;;;;;;;5078625;28;20459;-71
2021/07/12 11:34:14;;;;;;;14.13;12.73;;;;;;;;;;5086236;28;20463;-71
2021/07/12 11:36:47;;;;;;;14.37;13.00;;;;;;;;;;5073286;28;20440;-71
2021/07/12 11:39:15;;;;;;;14.83;13.43;;;;;;;;;;5073556;28;20433;-71
2021/07/12 11:41:42;;;;;;;15.20;13.80;;;;;;;;;;5073084;28;20480;-71
2021/07/12 11:44:10;;;;;;;16.37;14.77;;;;;;;;;;5073557;28;20445;-71
2021/07/12 11:46:38;;;;;;;13.83;12.63;;;;;;;;;;5081438;28;20457;-71
2021/07/12 11:49:06;;;;;;;13.30;12.20;;;;;;;;;;5075043;28;20433;-72
2021/07/12 11:51:33;;;;;;;15.87;14.03;;;;;;;;;;5086063;28;20462;-72
2021/07/12 11:54:01;;;;;;;13.53;12.33;;;;;;;;;;5073040;28;20472;-72
2021/07/12 11:56:29;;;;;;;11.60;10.60;;;;;;;;;;5073174;28;20431;-72
2021/07/12 11:58:57;;;;;;;11.60;10.50;;;;;;;;;;5073533;28;20828;-72
2021/07/12 12:01:24;;;;;;;11.37;10.37;;;;;;;;;;5072783;28;20484;-72
2021/07/12 12:04:00;;;;;;;11.87;10.97;;;;;;;;;;5072760;28;20974;-71
2021/07/12 12:06:28;;;;;;;11.47;10.47;;;;;;;;;;5072989;28;20606;-72
2021/07/12 12:08:59;;;;;;;11.80;10.70;;;;;;;;;;5072685;28;20449;-72
2021/07/12 12:11:28;;;;;;;12.70;11.60;;;;;;;;;;5073235;28;20541;-72
2021/07/12 12:13:55;;;;;;;13.00;11.70;;;;;;;;;;5073828;28;20442;-72
2021/07/12 12:16:26;;;;;;;13.50;12.20;;;;;;;;;;5074649;28;20455;-72
2021/07/12 12:18:54;;;;;;;11.93;10.83;;;;;;;;;;5077838;28;20476;-72
2021/07/12 12:21:22;;;;;;;11.73;10.40;;;;;;;;;;5087674;28;20473;-72
2021/07/12 12:23:50;;;;;;;10.87;10.00;;;;;;;;;;5092679;28;20958;-72
2021/07/12 12:26:22;;;;;;;12.93;11.53;;;;;;;;;;5092947;28;20529;-72
2021/07/12 12:28:53;;;;;;;11.23;10.13;;;;;;;;;;5095758;28;20954;-72
2021/07/12 12:31:22;;;;;;;12.60;11.43;;;;;;;;;;5097259;28;20440;-72
2021/07/12 12:33:56;;;;;;;14.10;11.27;;;;;;;;;;5096507;28;20493;-72
2021/07/12 12:36:24;;;;;;;11.83;10.63;;;;;;;;;;5096764;28;20465;-72
2021/07/12 12:38:52;;;;;;;13.87;10.80;;;;;;;;;;5090342;28;20606;-72
2021/07/12 12:41:20;;;;;;;12.00;11.00;;;;;;;;;;5084307;28;20477;-72
2021/07/12 12:44:01;;;;;;;11.40;10.37;;;;;;;;;;5091732;28;20436;-72
2021/07/12 12:46:28;;;;;;;10.10;9.23;;;;;;;;;;5096416;28;20476;-72
2021/07/12 12:48:58;;;;;;;10.40;9.50;;;;;;;;;;5096229;28;20440;-72
2021/07/12 12:51:26;;;;;;;11.27;10.33;;;;;;;;;;5097080;28;20460;-72
2021/07/12 12:53:57;;;;;;;10.87;9.97;;;;;;;;;;5096130;28;20516;-72
2021/07/12 12:56:24;;;;;;;11.33;10.33;;;;;;;;;;5096867;28;20438;-71
2021/07/12 12:58:57;;;;;;;11.30;10.40;;;;;;;;;;5089949;28;20462;-67
2021/07/12 13:01:30;;;;;;;11.73;10.83;;;;;;;;;;5078214;28;20987;-71
2021/07/12 13:04:04;;;;;;;11.70;10.40;;;;;;;;;;5089853;28;20444;-70
2021/07/12 13:06:38;;;;;;;11.60;10.60;;;;;;;;;;5075873;28;20508;-70
2021/07/12 13:09:06;;;;;;;11.33;10.33;;;;;;;;;;5075763;28;20469;-70
2021/07/12 13:11:35;;;;;;;12.87;11.50;;;;;;;;;;5075958;28;20940;-70
2021/07/12 13:14:02;;;;;;;13.80;10.10;;;;;;;;;;5076455;28;20441;-70
2021/07/12 13:16:34;;;;;;;13.30;12.10;;;;;;;;;;5075397;28;20541;-70
2021/07/12 13:19:01;;;;;;;11.97;10.93;;;;;;;;;;5076482;28;20900;-70
2021/07/12 13:21:47;;;;;;;10.70;9.53;;;;;;;;;;5085602;28;20477;-71
2021/07/12 13:24:14;;;;;;;10.70;9.77;;;;;;;;;;5083822;28;20441;-71
2021/07/12 13:26:41;;;;;;;10.30;9.50;;;;;;;;;;5087646;28;20474;-70
2021/07/12 13:29:08;;;;;;;14.10;9.57;;;;;;;;;;5088444;28;20962;-70
2021/07/12 13:31:37;;;;;;;9.07;8.13;;;;;;;;;;5077833;28;20477;-70
2021/07/12 13:34:05;;;;;;;9.53;8.73;;;;;;;;;;5081826;28;20468;-70
2021/07/12 13:36:32;;;;;;;10.27;9.27;;;;;;;;;;5075793;28;20888;-70
2021/07/12 13:39:00;;;;;;;9.30;8.40;;;;;;;;;;5078580;28;20457;-70
2021/07/12 13:41:27;;;;;;;9.13;8.43;;;;;;;;;;5083043;28;20484;-70
2021/07/12 13:43:54;;;;;;;10.43;9.53;;;;;;;;;;5082737;28;20539;-70
2021/07/12 13:46:21;;;;;;;8.97;8.27;;;;;;;;;;5076044;28;20439;-70
2021/07/12 13:48:50;;;;;;;8.90;8.20;;;;;;;;;;5075068;28;20465;-70
2021/07/12 13:51:17;;;;;;;9.50;8.70;;;;;;;;;;5075464;28;20446;-70
2021/07/12 13:53:44;;;;;;;10.00;9.17;;;;;;;;;;5074990;28;20975;-70
2021/07/12 13:56:11;;;;;;;9.53;8.30;;;;;;;;;;5086285;28;20435;-71
2021/07/12 13:58:38;;;;;;;9.50;8.67;;;;;;;;;;5080270;28;20515;-70
2021/07/12 14:01:06;;;;;;;8.60;7.90;;;;;;;;;;5077848;28;20486;-70
2021/07/12 14:03:33;;;;;;;10.10;9.30;;;;;;;;;;5075191;28;20443;-71
2021/07/12 14:06:01;;;;;;;9.90;9.10;;;;;;;;;;5075199;28;20454;-70
2021/07/12 14:08:29;;;;;;;8.80;8.17;;;;;;;;;;5075366;28;20416;-70
2021/07/12 14:10:57;;;;;;;10.07;9.20;;;;;;;;;;5074421;28;20439;-70
2021/07/12 14:13:24;;;;;;;10.03;9.03;;;;;;;;;;5074925;28;20420;-70
2021/07/12 14:15:51;;;;;;;9.10;8.40;;;;;;;;;;5075337;28;20445;-70
2021/07/12 14:18:18;;;;;;;9.43;8.70;;;;;;;;;;5074772;28;20447;-70
2021/07/12 14:20:45;;;;;;;9.37;8.57;;;;;;;;;;5074693;28;20506;-70
2021/07/12 14:23:14;;;;;;;8.07;7.23;;;;;;;;;;5092176;28;20486;-70
2021/07/12 14:25:43;;;;;;;9.23;8.47;;;;;;;;;;5094769;28;20462;-70
2021/07/12 14:28:11;;;;;;;8.80;8.10;;;;;;;;;;5092138;28;20483;-70
2021/07/12 14:30:38;;;;;;;8.67;8.03;;;;;;;;;;5083299;28;20435;-70